Time;durP1;ratioP1;P1;durP2;ratioP2;P2;SDS_P1;SDS_P2;PMS_P1;PMS_P2;Temp;Humidity;BMP_temperature;BMP_pressure;BME280_temperature;BME280_humidity;BME280_pressure;Samples;Min_cycle;Max_cycle;Signal;HPM_P1;HPM_P2
2023/03/25 00:02:57;;;;;;;;;;;10.60;78.30;;;;;;9179777;19;19950;-66
2023/03/25 00:06:01;;;;;;;;;;;10.60;78.30;;;;;;9173468;19;20450;-66
2023/03/25 00:09:07;;;;;;;;;;;10.60;78.30;;;;;;9174133;19;19918;-66
2023/03/25 00:12:13;;;;;;;;;;;10.60;78.30;;;;;;9175078;19;20567;-66
2023/03/25 00:15:21;;;;;;;;;;;10.60;78.30;;;;;;9174084;19;19926;-66
2023/03/25 00:18:28;;;;;;;;;;;10.60;78.30;;;;;;9172237;19;19915;-66
2023/03/25 00:21:34;;;;;;;;;;;10.60;78.30;;;;;;9179819;19;19926;-66
2023/03/25 00:24:38;;;;;;;;;;;10.60;78.30;;;;;;9180762;19;20261;-66
2023/03/25 00:27:47;;;;;;;;;;;10.60;78.30;;;;;;9176764;19;19953;-66
2023/03/25 00:30:52;;;;;;;;;;;10.60;78.30;;;;;;9177536;19;19918;-66
2023/03/25 00:33:58;;;;;;;;;;;10.60;78.30;;;;;;9179306;19;19919;-67
2023/03/25 00:37:03;;;;;;;;;;;10.60;78.90;;;;;;9178787;19;19930;-66
2023/03/25 00:40:10;;;;;;;;;;;10.70;78.30;;;;;;9180492;19;19918;-66
2023/03/25 00:43:16;;;;;;;;;;;10.60;78.20;;;;;;9177291;19;20539;-66
2023/03/25 00:46:22;;;;;;;;;;;10.70;78.30;;;;;;9178585;19;19926;-66
2023/03/25 00:49:27;;;;;;;;;;;10.70;78.30;;;;;;9179232;19;19915;-66
2023/03/25 00:52:33;;;;;;;;;;;10.70;78.30;;;;;;9179726;19;20341;-66
2023/03/25 00:55:37;;;;;;;;;;;10.70;78.30;;;;;;9173945;19;19915;-66
2023/03/25 00:58:44;;;;;;;;;;;10.70;78.30;;;;;;9179800;19;19915;-66
2023/03/25 01:01:52;;;;;;;;;;;10.70;78.30;;;;;;9178623;19;20341;-66
2023/03/25 01:04:58;;;;;;;;;;;10.70;78.30;;;;;;9180285;19;19923;-66
2023/03/25 01:08:03;;;;;;;;;;;10.70;78.30;;;;;;9176347;19;19926;-66
2023/03/25 01:11:17;;;;;;;;;;;10.70;78.30;;;;;;9178110;19;20333;-66
2023/03/25 01:14:26;;;;;;;;;;;10.70;78.30;;;;;;9175627;19;20264;-66
2023/03/25 01:17:32;;;;;;;;;;;10.70;78.30;;;;;;9173518;19;19918;-66
2023/03/25 01:20:35;;;;;;;;;;;10.70;78.20;;;;;;9177213;19;19963;-66
2023/03/25 01:23:41;;;;;;;;;;;10.70;78.20;;;;;;9177644;19;19915;-66
2023/03/25 01:26:46;;;;;;;;;;;10.70;78.30;;;;;;9176476;19;20316;-66
2023/03/25 01:29:54;;;;;;;;;;;10.70;78.30;;;;;;9177007;19;20276;-66
2023/03/25 01:32:58;;;;;;;;;;;10.70;78.30;;;;;;9178181;19;19914;-66
2023/03/25 01:36:11;;;;;;;;;;;10.70;78.30;;;;;;9172784;19;19938;-66
2023/03/25 01:39:17;;;;;;;;;;;10.70;78.30;;;;;;9176217;19;20248;-66
2023/03/25 01:42:23;;;;;;;;;;;10.70;78.30;;;;;;9177959;19;19923;-66
2023/03/25 01:45:31;;;;;;;;;;;10.70;78.30;;;;;;9177893;19;19923;-66
2023/03/25 01:48:39;;;;;;;;;;;10.70;78.30;;;;;;9177695;19;19931;-66
2023/03/25 01:51:45;;;;;;;;;;;10.60;78.30;;;;;;9176068;19;19926;-66
2023/03/25 01:54:53;;;;;;;;;;;10.60;78.30;;;;;;9173851;19;19926;-66
2023/03/25 01:57:58;;;;;;;;;;;10.60;78.30;;;;;;9175779;19;20281;-66
2023/03/25 02:01:10;;;;;;;;;;;10.60;78.30;;;;;;9177026;19;19911;-66
2023/03/25 02:04:14;;;;;;;;;;;10.60;78.30;;;;;;9175376;19;19915;-66
2023/03/25 02:07:20;;;;;;;;;;;10.60;78.30;;;;;;9181601;19;19923;-66
2023/03/25 02:10:23;;;;;;;;;;;10.60;78.30;;;;;;9184965;19;19934;-66
2023/03/25 02:13:30;;;;;;;;;;;10.60;78.30;;;;;;9185077;19;19915;-66
2023/03/25 02:16:42;;;;;;;;;;;10.60;78.30;;;;;;9180011;19;20337;-66
2023/03/25 02:20:07;;;;;;;;;;;10.60;78.30;;;;;;9185407;19;19925;-66
2023/03/25 02:23:27;;;;;;;;;;;10.60;78.30;;;;;;9183575;19;19938;-66
2023/03/25 02:26:48;;;;;;;;;;;10.60;78.30;;;;;;9183695;19;19978;-66
2023/03/25 02:29:58;;;;;;;;;;;10.60;78.30;;;;;;9182407;19;19919;-66
2023/03/25 02:33:19;;;;;;;;;;;10.60;78.30;;;;;;9182961;19;20233;-66
2023/03/25 02:36:38;;;;;;;;;;;10.60;78.90;;;;;;9178323;19;19922;-66
2023/03/25 02:39:48;;;;;;;;;;;10.60;78.30;;;;;;9182899;19;19933;-66
2023/03/25 02:42:54;;;;;;;;;;;10.60;78.30;;;;;;9183618;19;19957;-66
2023/03/25 02:46:02;;;;;;;;;;;10.60;78.30;;;;;;9184292;19;20011;-66
2023/03/25 02:49:09;;;;;;;;;;;10.60;78.30;;;;;;9183265;19;20002;-66
2023/03/25 02:52:16;;;;;;;;;;;10.50;78.30;;;;;;9182245;19;19922;-66
2023/03/25 02:55:24;;;;;;;;;;;10.60;78.40;;;;;;9180438;19;19922;-66
2023/03/25 02:58:31;;;;;;;;;;;10.50;78.30;;;;;;9183991;19;19926;-66
2023/03/25 03:01:36;;;;;;;;;;;10.60;78.40;;;;;;9182477;19;20277;-66
2023/03/25 03:04:46;;;;;;;;;;;10.60;78.90;;;;;;9181950;19;19930;-66
2023/03/25 03:07:53;;;;;;;;;;;10.60;78.40;;;;;;9181446;19;19925;-66
2023/03/25 03:11:06;;;;;;;;;;;10.50;78.30;;;;;;9182935;19;20251;-66
2023/03/25 03:14:17;;;;;;;;;;;10.50;78.30;;;;;;9182598;19;19938;-66
2023/03/25 03:17:28;;;;;;;;;;;10.50;78.30;;;;;;9174834;19;19919;-66
2023/03/25 03:20:38;;;;;;;;;;;10.50;78.30;;;;;;9181284;19;20393;-66
2023/03/25 03:23:50;;;;;;;;;;;10.50;78.30;;;;;;9181323;19;20246;-66
2023/03/25 03:26:58;;;;;;;;;;;10.50;78.30;;;;;;9182230;19;19923;-66
2023/03/25 03:30:07;;;;;;;;;;;10.50;78.30;;;;;;9181442;19;19930;-66
2023/03/25 03:33:14;;;;;;;;;;;10.50;78.30;;;;;;9180117;19;19927;-66
2023/03/25 03:36:21;;;;;;;;;;;10.50;78.30;;;;;;9179336;19;19919;-66
2023/03/25 03:39:28;;;;;;;;;;;10.50;78.30;;;;;;9180811;19;20287;-66
2023/03/25 03:42:38;;;;;;;;;;;10.50;78.30;;;;;;9182425;19;19918;-66
2023/03/25 03:45:44;;;;;;;;;;;10.50;78.30;;;;;;9182195;19;20245;-66
2023/03/25 03:48:52;;;;;;;;;;;10.50;78.30;;;;;;9182886;19;19930;-66
2023/03/25 03:51:58;;;;;;;;;;;10.50;78.30;;;;;;9181820;19;20274;-66
2023/03/25 03:55:09;;;;;;;;;;;10.50;78.30;;;;;;9178171;19;20280;-66
2023/03/25 03:58:21;;;;;;;;;;;10.40;78.30;;;;;;9181204;19;19922;-66
2023/03/25 04:01:29;;;;;;;;;;;10.40;78.30;;;;;;9182143;19;20317;-66
2023/03/25 04:04:33;;;;;;;;;;;10.40;78.30;;;;;;9179515;19;19929;-66
2023/03/25 04:07:41;;;;;;;;;;;10.40;78.30;;;;;;9181019;19;19929;-65
2023/03/25 04:10:51;;;;;;;;;;;10.40;78.30;;;;;;9180011;19;19925;-66
2023/03/25 04:14:00;;;;;;;;;;;10.30;78.30;;;;;;9180381;19;19930;-66
2023/03/25 04:17:05;;;;;;;;;;;10.30;78.40;;;;;;9175976;19;19922;-66
2023/03/25 04:20:14;;;;;;;;;;;10.30;78.40;;;;;;9180722;19;19929;-66
2023/03/25 04:23:18;;;;;;;;;;;10.30;78.40;;;;;;9180990;19;19919;-66
2023/03/25 04:26:24;;;;;;;;;;;10.20;78.30;;;;;;9178643;19;19923;-66
2023/03/25 04:29:30;;;;;;;;;;;10.20;78.30;;;;;;9173879;19;20530;-66
2023/03/25 04:32:36;;;;;;;;;;;10.20;78.40;;;;;;9180399;19;19934;-66
2023/03/25 04:35:40;;;;;;;;;;;10.10;78.30;;;;;;9178176;19;20355;-66
2023/03/25 04:38:46;;;;;;;;;;;10.10;78.40;;;;;;9180454;19;19926;-66
2023/03/25 04:41:52;;;;;;;;;;;10.10;78.40;;;;;;9180318;19;19930;-66
2023/03/25 04:45:00;;;;;;;;;;;10.10;78.40;;;;;;9178733;19;19926;-66
2023/03/25 04:48:04;;;;;;;;;;;10.10;78.50;;;;;;9180772;19;19925;-65
2023/03/25 04:51:12;;;;;;;;;;;10.10;78.50;;;;;;9179523;19;20014;-66
2023/03/25 04:54:16;;;;;;;;;;;10.00;78.40;;;;;;9177681;19;19911;-66
2023/03/25 04:57:25;;;;;;;;;;;10.00;78.40;;;;;;9180129;19;20541;-66
2023/03/25 05:00:30;;;;;;;;;;;10.00;78.40;;;;;;9179966;19;20379;-66
2023/03/25 05:03:38;;;;;;;;;;;10.00;78.50;;;;;;9178096;19;20256;-66
2023/03/25 05:06:43;;;;;;;;;;;10.00;78.50;;;;;;9179804;19;20344;-66
2023/03/25 05:09:49;;;;;;;;;;;10.00;78.50;;;;;;9174513;19;19929;-66
2023/03/25 05:12:58;;;;;;;;;;;10.00;78.60;;;;;;9179059;19;19926;-66
2023/03/25 05:16:06;;;;;;;;;;;10.00;78.60;;;;;;9174879;19;20003;-65
2023/03/25 05:19:10;;;;;;;;;;;9.90;78.50;;;;;;9174236;19;20337;-66
2023/03/25 05:22:16;;;;;;;;;;;10.00;78.60;;;;;;9178576;19;19929;-66
2023/03/25 05:25:21;;;;;;;;;;;10.00;78.60;;;;;;9176596;19;19922;-66
2023/03/25 05:28:29;;;;;;;;;;;10.00;78.60;;;;;;9178284;19;19922;-66
2023/03/25 05:31:35;;;;;;;;;;;10.00;78.70;;;;;;9177655;19;19922;-66
2023/03/25 05:34:41;;;;;;;;;;;10.00;78.60;;;;;;9177795;19;19919;-66
2023/03/25 05:37:45;;;;;;;;;;;10.00;78.60;;;;;;9176832;19;19915;-65
2023/03/25 05:40:51;;;;;;;;;;;10.00;78.60;;;;;;9177148;19;19918;-65
2023/03/25 05:43:54;;;;;;;;;;;10.00;78.60;;;;;;9178640;19;19919;-66
2023/03/25 05:47:03;;;;;;;;;;;9.90;78.60;;;;;;9176787;19;19919;-65
2023/03/25 05:50:07;;;;;;;;;;;9.90;78.60;;;;;;9177648;19;20341;-65
2023/03/25 05:53:15;;;;;;;;;;;9.90;78.60;;;;;;9176587;19;19923;-65
2023/03/25 05:56:20;;;;;;;;;;;9.90;78.60;;;;;;9173446;19;19919;-65
2023/03/25 05:59:26;;;;;;;;;;;9.90;78.60;;;;;;9176304;19;19927;-66
2023/03/25 06:02:31;;;;;;;;;;;9.90;78.70;;;;;;9176045;19;19934;-65
2023/03/25 06:05:40;;;;;;;;;;;10.00;78.70;;;;;;9177499;19;20443;-66
2023/03/25 06:08:44;;;;;;;;;;;9.90;78.60;;;;;;9173436;19;20272;-66
2023/03/25 06:11:52;;;;;;;;;;;9.90;78.60;;;;;;9175814;19;19926;-65
2023/03/25 06:14:56;;;;;;;;;;;9.90;78.70;;;;;;9173619;19;19926;-65
2023/03/25 06:18:03;;;;;;;;;;;9.90;78.70;;;;;;9162334;19;19918;-65
2023/03/25 06:21:08;;;;;;;;;;;10.00;78.70;;;;;;9167104;19;20351;-66
2023/03/25 06:24:14;;;;;;;;;;;10.00;78.70;;;;;;9167161;19;19929;-66
2023/03/25 06:27:19;;;;;;;;;;;10.00;78.70;;;;;;9169645;19;19919;-66
2023/03/25 06:30:25;;;;;;;;;;;10.00;78.80;;;;;;9165933;19;19923;-65
2023/03/25 06:33:30;;;;;;;;;;;10.00;78.80;;;;;;9166428;19;19922;-66
2023/03/25 06:36:49;;;;;;;;;;;10.00;78.70;;;;;;9165904;19;19919;-65
2023/03/25 06:39:55;;;;;;;;;;;10.00;78.70;;;;;;9173175;19;20296;-65
2023/03/25 06:43:03;;;;;;;;;;;10.00;78.70;;;;;;9173712;19;19925;-65
2023/03/25 06:46:09;;;;;;;;;;;10.00;78.80;;;;;;9173832;19;19930;-65
2023/03/25 06:49:50;;;;;;;;;;;9.90;78.70;;;;;;9173642;19;20477;-65
2023/03/25 06:52:54;;;;;;;;;;;10.00;78.80;;;;;;9175574;19;20279;-65
2023/03/25 06:56:00;;;;;;;;;;;9.90;78.70;;;;;;9180338;19;19919;-65
2023/03/25 06:59:04;;;;;;;;;;;9.90;78.80;;;;;;9183941;19;19915;-65
2023/03/25 07:02:11;;;;;;;;;;;9.90;78.80;;;;;;9183504;19;19919;-65
2023/03/25 07:05:17;;;;;;;;;;;9.90;78.80;;;;;;9183741;19;19914;-65
2023/03/25 07:08:23;;;;;;;;;;;10.00;78.80;;;;;;9180626;19;19926;-65
2023/03/25 07:11:29;;;;;;;;;;;10.00;78.90;;;;;;9181820;19;19986;-65
2023/03/25 07:14:35;;;;;;;;;;;10.00;78.80;;;;;;9182550;19;19915;-65
2023/03/25 07:17:38;;;;;;;;;;;10.00;78.80;;;;;;9174045;19;20370;-65
2023/03/25 07:20:46;;;;;;;;;;;10.00;78.90;;;;;;9182681;19;20248;-65
2023/03/25 07:23:50;;;;;;;;;;;10.00;78.90;;;;;;9183189;19;19923;-65
2023/03/25 07:26:56;;;;;;;;;;;10.10;78.90;;;;;;9181088;19;19925;-65
2023/03/25 07:30:03;;;;;;;;;;;10.10;78.90;;;;;;9181849;19;19923;-65
2023/03/25 07:33:09;;;;;;;;;;;10.20;79.00;;;;;;9183330;19;19934;-65
2023/03/25 07:36:15;;;;;;;;;;;10.20;79.10;;;;;;9180948;19;19918;-65
2023/03/25 07:39:24;;;;;;;;;;;10.30;79.10;;;;;;9180654;19;19918;-65
2023/03/25 07:42:27;;;;;;;;;;;10.40;79.10;;;;;;9180998;19;19915;-65
2023/03/25 07:45:51;;;;;;;;;;;10.50;79.10;;;;;;9180714;19;19934;-65
2023/03/25 07:48:55;;;;;;;;;;;10.50;79.00;;;;;;9182529;19;19970;-65
2023/03/25 07:52:03;;;;;;;;;;;10.60;79.60;;;;;;9181692;19;19915;-65
2023/03/25 07:55:07;;;;;;;;;;;10.70;79.00;;;;;;9180270;19;19919;-65
2023/03/25 07:58:13;;;;;;;;;;;10.70;79.00;;;;;;9180363;19;19915;-65
2023/03/25 08:01:17;;;;;;;;;;;10.80;78.90;;;;;;9181733;19;19994;-64
2023/03/25 08:04:23;;;;;;;;;;;10.80;78.90;;;;;;9179588;19;19922;-64
2023/03/25 08:07:29;;;;;;;;;;;10.90;78.90;;;;;;9181088;19;19930;-64
2023/03/25 08:10:35;;;;;;;;;;;10.90;78.80;;;;;;9181360;19;19925;-64
2023/03/25 08:13:39;;;;;;;;;;;10.90;78.80;;;;;;9179626;19;19930;-65
2023/03/25 08:16:45;;;;;;;;;;;10.90;78.70;;;;;;9172202;19;19923;-64
2023/03/25 08:19:49;;;;;;;;;;;10.90;78.70;;;;;;9179841;19;19923;-64
2023/03/25 08:22:57;;;;;;;;;;;10.90;78.70;;;;;;9181652;19;19927;-64
2023/03/25 08:26:01;;;;;;;;;;;10.80;78.70;;;;;;9180295;19;20048;-65
2023/03/25 08:29:08;;;;;;;;;;;10.80;79.30;;;;;;9178786;19;20275;-64
2023/03/25 08:32:12;;;;;;;;;;;10.80;78.70;;;;;;9178927;19;19918;-64
2023/03/25 08:35:19;;;;;;;;;;;10.80;78.70;;;;;;9179828;19;19919;-64
2023/03/25 08:38:30;;;;;;;;;;;10.80;78.70;;;;;;9179149;19;19978;-64
2023/03/25 08:41:39;;;;;;;;;;;10.70;79.00;;;;;;9179088;19;19933;-64
2023/03/25 08:44:43;;;;;;;;;;;10.70;78.70;;;;;;9178330;19;20332;-64
2023/03/25 08:47:49;;;;;;;;;;;10.70;78.80;;;;;;9180376;19;19926;-64
2023/03/25 08:50:54;;;;;;;;;;;10.60;78.80;;;;;;9180408;19;19944;-64
2023/03/25 08:54:02;;;;;;;;;;;10.60;78.80;;;;;;9178317;19;19915;-64
2023/03/25 08:57:05;;;;;;;;;;;10.60;78.90;;;;;;9176291;19;19919;-65
2023/03/25 09:00:14;;;;;;;;;;;10.60;78.90;;;;;;9175337;19;20264;-65
2023/03/25 09:03:17;;;;;;;;;;;10.60;78.90;;;;;;9176107;19;19925;-65
2023/03/25 09:06:23;;;;;;;;;;;10.60;79.00;;;;;;9177987;19;19926;-65
2023/03/25 09:09:29;;;;;;;;;;;10.60;79.00;;;;;;9174542;19;19923;-65
2023/03/25 09:12:35;;;;;;;;;;;10.60;79.00;;;;;;9177933;19;19915;-66
2023/03/25 09:15:39;;;;;;;;;;;10.60;79.00;;;;;;9176468;19;19910;-65
2023/03/25 09:18:45;;;;;;;;;;;10.70;79.10;;;;;;9173628;19;19918;-65
2023/03/25 09:21:49;;;;;;;;;;;10.70;79.20;;;;;;9177730;19;20380;-65
2023/03/25 09:24:57;;;;;;;;;;;10.70;79.20;;;;;;9178965;19;20265;-65
2023/03/25 09:28:01;;;;;;;;;;;10.70;79.20;;;;;;9176455;19;19922;-65
2023/03/25 09:31:08;;;;;;;;;;;10.80;79.20;;;;;;9177870;19;19919;-62
2023/03/25 09:34:11;;;;;;;;;;;10.80;79.10;;;;;;9176536;19;20264;-63
2023/03/25 09:37:19;;;;;;;;;;;10.90;79.20;;;;;;9174815;19;20343;-63
2023/03/25 09:40:25;;;;;;;;;;;10.90;79.20;;;;;;9178190;19;19918;-63
2023/03/25 09:43:37;;;;;;;;;;;11.00;79.20;;;;;;9178658;19;19919;-63
2023/03/25 09:46:41;;;;;;;;;;;11.00;79.20;;;;;;9176491;19;19932;-64
2023/03/25 09:49:52;;;;;;;;;;;11.10;79.20;;;;;;9177400;19;19919;-63
2023/03/25 09:52:58;;;;;;;;;;;11.10;79.20;;;;;;9171542;19;19925;-64
2023/03/25 09:56:07;;;;;;;;;;;11.20;79.20;;;;;;9166740;19;19933;-63
2023/03/25 09:59:14;;;;;;;;;;;11.20;79.10;;;;;;9168493;19;19919;-63
2023/03/25 10:02:28;;;;;;;;;;;11.30;79.10;;;;;;9171103;19;20284;-63
2023/03/25 10:05:56;;;;;;;;;;;11.30;79.00;;;;;;9170160;19;19927;-63
2023/03/25 10:09:09;;;;;;;;;;;11.30;79.00;;;;;;9172207;19;19926;-63
2023/03/25 10:12:23;;;;;;;;;;;11.30;79.00;;;;;;9176917;19;19945;-63
2023/03/25 10:15:32;;;;;;;;;;;11.30;79.00;;;;;;9174719;19;20273;-63
2023/03/25 10:18:46;;;;;;;;;;;11.30;79.00;;;;;;9171940;19;20003;-63
2023/03/25 10:21:54;;;;;;;;;;;11.30;79.10;;;;;;9175329;19;20257;-64
2023/03/25 10:24:59;;;;;;;;;;;11.40;79.20;;;;;;9176666;19;19911;-63
2023/03/25 10:28:08;;;;;;;;;;;11.40;79.30;;;;;;9176691;19;19990;-64
2023/03/25 10:31:14;;;;;;;;;;;11.50;79.40;;;;;;9183574;19;19923;-63
2023/03/25 10:34:21;;;;;;;;;;;11.60;79.30;;;;;;9183175;19;19923;-63
2023/03/25 10:37:27;;;;;;;;;;;11.70;79.30;;;;;;9180821;19;19915;-63
2023/03/25 10:40:35;;;;;;;;;;;11.70;79.20;;;;;;9182632;19;19922;-63
2023/03/25 10:43:42;;;;;;;;;;;11.80;79.20;;;;;;9183455;19;19926;-63
2023/03/25 10:46:51;;;;;;;;;;;11.90;79.30;;;;;;9183801;19;20345;-63
2023/03/25 10:49:55;;;;;;;;;;;12.00;79.30;;;;;;9184406;19;19946;-63
2023/03/25 10:53:01;;;;;;;;;;;12.00;79.20;;;;;;9183021;19;19919;-64
2023/03/25 10:56:06;;;;;;;;;;;12.10;79.20;;;;;;9180798;19;20210;-63
2023/03/25 10:59:18;;;;;;;;;;;12.30;79.20;;;;;;9185135;19;19922;-63
2023/03/25 11:02:24;;;;;;;;;;;12.40;79.20;;;;;;9182432;19;19926;-63
2023/03/25 11:05:30;;;;;;;;;;;12.50;79.20;;;;;;9184637;19;20426;-63
2023/03/25 11:08:34;;;;;;;;;;;12.60;79.10;;;;;;9182080;19;19918;-64
2023/03/25 11:11:40;;;;;;;;;;;12.70;79.10;;;;;;9183832;19;19919;-63
2023/03/25 11:14:55;;;;;;;;;;;12.80;79.10;;;;;;9182943;19;19919;-64
2023/03/25 11:18:02;;;;;;;;;;;13.00;79.10;;;;;;9175675;19;19919;-64
2023/03/25 11:21:09;;;;;;;;;;;13.00;78.90;;;;;;9181359;19;19982;-64
2023/03/25 11:24:15;;;;;;;;;;;13.20;78.90;;;;;;9181327;19;19919;-63
2023/03/25 11:27:21;;;;;;;;;;;13.20;78.80;;;;;;9180044;19;19925;-63
2023/03/25 11:30:28;;;;;;;;;;;13.30;78.70;;;;;;9182043;19;20273;-64
2023/03/25 11:33:32;;;;;;;;;;;13.40;78.60;;;;;;9182429;19;19919;-63
2023/03/25 11:36:39;;;;;;;;;;;13.30;78.60;;;;;;9178444;19;19927;-63
2023/03/25 11:39:43;;;;;;;;;;;13.40;78.60;;;;;;9177674;19;19925;-64
2023/03/25 11:42:53;;;;;;;;;;;13.40;78.60;;;;;;9173073;19;19923;-64
2023/03/25 11:45:58;;;;;;;;;;;13.50;78.70;;;;;;9171545;19;19915;-64
2023/03/25 11:49:11;;;;;;;;;;;13.50;78.70;;;;;;9167929;19;19919;-63
2023/03/25 11:52:18;;;;;;;;;;;13.60;78.70;;;;;;9167636;19;19919;-64
2023/03/25 11:55:25;;;;;;;;;;;13.70;78.70;;;;;;9170071;19;19923;-63
2023/03/25 11:58:31;;;;;;;;;;;13.70;78.50;;;;;;9166463;19;19931;-63
2023/03/25 12:01:43;;;;;;;;;;;13.80;78.50;;;;;;9168185;19;19918;-64
2023/03/25 12:04:56;;;;;;;;;;;13.80;78.40;;;;;;9166743;19;19994;-64
2023/03/25 12:08:05;;;;;;;;;;;13.80;79.00;;;;;;9168519;19;20874;-64
2023/03/25 12:11:12;;;;;;;;;;;13.80;78.30;;;;;;9166302;19;19948;-64
2023/03/25 12:14:27;;;;;;;;;;;13.80;78.30;;;;;;9167402;19;19919;-64
2023/03/25 12:17:39;;;;;;;;;;;13.80;78.30;;;;;;9158375;19;19926;-64
2023/03/25 12:20:53;;;;;;;;;;;13.80;78.30;;;;;;9165993;19;19918;-63
2023/03/25 12:24:06;;;;;;;;;;;13.80;78.30;;;;;;9166918;19;20320;-63
2023/03/25 12:27:17;;;;;;;;;;;13.80;78.30;;;;;;9165910;19;20287;-63
2023/03/25 12:30:36;;;;;;;;;;;13.70;78.20;;;;;;9165687;19;19919;-63
2023/03/25 12:33:51;;;;;;;;;;;13.70;78.20;;;;;;9166902;19;19922;-64
2023/03/25 12:37:00;;;;;;;;;;;13.60;78.80;;;;;;9163669;19;19918;-63
2023/03/25 12:40:28;;;;;;;;;;;13.60;78.30;;;;;;9164720;19;19922;-63
2023/03/25 12:43:39;;;;;;;;;;;13.50;78.30;;;;;;9151700;19;19927;-63
2023/03/25 12:46:55;;;;;;;;;;;13.40;78.30;;;;;;9162497;19;19922;-63
2023/03/25 12:50:12;;;;;;;;;;;13.30;78.40;;;;;;9163829;19;19919;-63
2023/03/25 12:53:26;;;;;;;;;;;13.30;78.50;;;;;;9169866;19;19918;-63
2023/03/25 12:56:35;;;;;;;;;;;13.30;78.60;;;;;;9172058;19;19925;-63
2023/03/25 12:59:53;;;;;;;;;;;13.20;78.60;;;;;;9172484;19;19915;-63
2023/03/25 13:03:11;;;;;;;;;;;13.30;78.70;;;;;;9170174;19;19919;-63
2023/03/25 13:06:23;;;;;;;;;;;13.30;78.70;;;;;;9169426;19;19941;-63
2023/03/25 13:09:28;;;;;;;;;;;13.30;78.80;;;;;;9166681;19;19934;-63
2023/03/25 13:12:36;;;;;;;;;;;13.30;78.70;;;;;;9169765;19;20359;-63
2023/03/25 13:15:42;;;;;;;;;;;13.40;78.70;;;;;;9170060;19;19954;-63
2023/03/25 13:18:50;;;;;;;;;;;13.40;78.70;;;;;;9170269;19;20281;-63
2023/03/25 13:21:58;;;;;;;;;;;13.50;78.70;;;;;;9170560;19;19918;-63
2023/03/25 13:25:07;;;;;;;;;;;13.50;78.70;;;;;;9169500;19;20272;-64
2023/03/25 13:28:13;;;;;;;;;;;13.50;78.60;;;;;;9176474;19;19921;-64
2023/03/25 13:31:20;;;;;;;;;;;13.50;78.50;;;;;;9175765;19;19915;-64
2023/03/25 13:34:27;;;;;;;;;;;13.50;78.50;;;;;;9172682;19;19925;-64
2023/03/25 13:37:37;;;;;;;;;;;13.50;78.40;;;;;;9174793;19;19923;-64
2023/03/25 13:40:44;;;;;;;;;;;13.40;78.40;;;;;;9175699;19;19919;-62
2023/03/25 13:43:55;;;;;;;;;;;13.40;78.40;;;;;;9171471;19;19923;-63
2023/03/25 13:47:02;;;;;;;;;;;13.30;78.40;;;;;;9177765;19;19919;-62
2023/03/25 13:50:12;;;;;;;;;;;13.30;78.30;;;;;;9178117;19;19935;-63
2023/03/25 13:53:20;;;;;;;;;;;13.30;78.50;;;;;;9173799;19;20276;-63
2023/03/25 13:56:35;;;;;;;;;;;13.20;78.40;;;;;;9174813;19;19930;-63
2023/03/25 13:59:52;;;;;;;;;;;13.10;78.50;;;;;;9177131;19;20254;-63
2023/03/25 14:03:23;;;;;;;;;;;13.10;78.50;;;;;;9177120;19;19918;-63
2023/03/25 14:06:37;;;;;;;;;;;13.10;78.60;;;;;;9179124;19;19918;-63
2023/03/25 14:09:56;;;;;;;;;;;13.10;78.60;;;;;;9180929;19;19934;-63
2023/03/25 14:13:02;;;;;;;;;;;13.10;78.60;;;;;;9181656;19;19925;-64
2023/03/25 14:16:09;;;;;;;;;;;13.10;78.70;;;;;;9181784;19;20284;-64
2023/03/25 14:19:14;;;;;;;;;;;13.10;78.70;;;;;;9183215;19;19990;-64
2023/03/25 14:22:22;;;;;;;;;;;13.10;78.70;;;;;;9181310;19;19927;-64
2023/03/25 14:25:36;;;;;;;;;;;13.20;78.70;;;;;;9177068;19;19933;-64
2023/03/25 14:28:43;;;;;;;;;;;13.20;78.70;;;;;;9184374;19;19911;-64
2023/03/25 14:32:00;;;;;;;;;;;13.30;78.60;;;;;;9182457;19;20273;-63
2023/03/25 14:35:21;;;;;;;;;;;13.30;78.60;;;;;;9182605;19;19925;-64
2023/03/25 14:38:49;;;;;;;;;;;13.40;78.50;;;;;;9179305;19;19930;-64
2023/03/25 14:42:01;;;;;;;;;;;13.50;78.60;;;;;;9183051;19;19948;-64
2023/03/25 14:45:28;;;;;;;;;;;13.60;78.50;;;;;;9177777;19;19923;-64
2023/03/25 14:48:36;;;;;;;;;;;13.70;78.40;;;;;;9180414;19;19926;-64
2023/03/25 14:51:47;;;;;;;;;;;13.70;78.30;;;;;;9183340;19;19948;-64
2023/03/25 14:54:55;;;;;;;;;;;13.80;78.30;;;;;;9181652;19;19915;-65
2023/03/25 14:58:02;;;;;;;;;;;13.90;78.20;;;;;;9181767;19;19922;-64
2023/03/25 15:01:11;;;;;;;;;;;13.90;78.10;;;;;;9178955;19;19926;-64
2023/03/25 15:04:18;;;;;;;;;;;14.00;78.10;;;;;;9180246;19;20258;-64
2023/03/25 15:07:39;;;;;;;;;;;14.10;78.10;;;;;;9178922;19;19919;-64
2023/03/25 15:10:44;;;;;;;;;;;14.10;78.00;;;;;;9179180;19;19919;-64
2023/03/25 15:13:56;;;;;;;;;;;14.10;77.90;;;;;;9177243;19;19934;-64
2023/03/25 15:17:06;;;;;;;;;;;14.20;77.80;;;;;;9177013;19;19919;-64
2023/03/25 15:20:30;;;;;;;;;;;14.20;77.70;;;;;;9179373;19;19921;-64
2023/03/25 15:23:36;;;;;;;;;;;14.10;77.60;;;;;;9179151;19;19950;-64
2023/03/25 15:26:43;;;;;;;;;;;14.10;77.60;;;;;;9178053;19;20304;-64
2023/03/25 15:29:56;;;;;;;;;;;14.10;77.50;;;;;;9173871;19;20333;-63
2023/03/25 15:33:10;;;;;;;;;;;14.00;77.50;;;;;;9171964;19;19911;-63
2023/03/25 15:36:31;;;;;;;;;;;14.00;77.40;;;;;;9174574;19;19914;-64
2023/03/25 15:39:43;;;;;;;;;;;13.90;77.40;;;;;;9164563;19;19926;-63
2023/03/25 15:42:56;;;;;;;;;;;13.80;77.40;;;;;;9156429;19;20662;-63
2023/03/25 15:46:11;;;;;;;;;;;13.70;77.40;;;;;;9165886;19;19914;-63
2023/03/25 15:49:28;;;;;;;;;;;13.60;77.40;;;;;;9161635;19;19923;-63
2023/03/25 15:52:39;;;;;;;;;;;13.50;77.40;;;;;;9161573;19;19919;-63
2023/03/25 15:55:51;;;;;;;;;;;13.50;77.40;;;;;;9164483;19;19935;-64
2023/03/25 15:59:02;;;;;;;;;;;13.40;77.40;;;;;;9160301;19;19923;-63
2023/03/25 16:02:13;;;;;;;;;;;13.30;77.30;;;;;;9169957;19;19923;-64
2023/03/25 16:05:20;;;;;;;;;;;13.10;77.30;;;;;;9170093;19;20364;-62
2023/03/25 16:08:26;;;;;;;;;;;13.00;77.30;;;;;;9174009;19;19922;-62
2023/03/25 16:11:32;;;;;;;;;;;12.90;77.30;;;;;;9176398;19;19927;-62
2023/03/25 16:14:36;;;;;;;;;;;12.70;77.30;;;;;;9170936;19;19925;-63
2023/03/25 16:17:47;;;;;;;;;;;12.60;77.40;;;;;;9174951;19;19927;-62
2023/03/25 16:20:54;;;;;;;;;;;12.40;77.40;;;;;;9177790;19;20253;-64
2023/03/25 16:24:03;;;;;;;;;;;12.30;77.50;;;;;;9177288;19;19929;-62
2023/03/25 16:27:10;;;;;;;;;;;12.20;77.50;;;;;;9178967;19;20352;-62
2023/03/25 16:30:21;;;;;;;;;;;12.10;77.60;;;;;;9175772;19;19938;-63
2023/03/25 16:33:31;;;;;;;;;;;12.00;77.70;;;;;;9177095;19;19922;-62
2023/03/25 16:36:37;;;;;;;;;;;11.90;77.70;;;;;;9175954;19;20330;-62
2023/03/25 16:39:41;;;;;;;;;;;11.80;77.60;;;;;;9174831;19;19919;-62
2023/03/25 16:42:47;;;;;;;;;;;11.70;77.70;;;;;;9173483;19;20535;-63
2023/03/25 16:45:51;;;;;;;;;;;11.60;77.70;;;;;;9178251;19;20322;-62
2023/03/25 16:49:01;;;;;;;;;;;11.60;77.80;;;;;;9176652;19;19918;-62
2023/03/25 16:52:08;;;;;;;;;;;11.50;77.80;;;;;;9176583;19;19934;-63
2023/03/25 16:55:26;;;;;;;;;;;11.50;77.90;;;;;;9177668;19;19915;-63
2023/03/25 16:58:30;;;;;;;;;;;11.40;77.80;;;;;;9173281;19;19923;-63
2023/03/25 17:01:40;;;;;;;;;;;11.30;77.80;;;;;;9177606;19;20295;-62
2023/03/25 17:04:45;;;;;;;;;;;11.30;77.80;;;;;;9178678;19;19961;-62
2023/03/25 17:07:57;;;;;;;;;;;11.20;77.80;;;;;;9173681;19;19918;-62
2023/03/25 17:11:00;;;;;;;;;;;11.20;77.90;;;;;;9174602;19;19933;-62
2023/03/25 17:14:07;;;;;;;;;;;11.20;77.90;;;;;;9174581;19;19922;-62
2023/03/25 17:17:14;;;;;;;;;;;11.10;77.90;;;;;;9173223;19;19918;-62
2023/03/25 17:20:26;;;;;;;;;;;11.00;77.80;;;;;;9173620;19;19922;-63
2023/03/25 17:23:36;;;;;;;;;;;11.00;77.90;;;;;;9167839;19;19919;-62
2023/03/25 17:26:55;;;;;;;;;;;11.00;77.90;;;;;;9176183;19;19926;-62
2023/03/25 17:30:00;;;;;;;;;;;10.90;77.90;;;;;;9173718;19;20281;-63
2023/03/25 17:33:10;;;;;;;;;;;10.90;77.90;;;;;;9173274;19;19919;-62
2023/03/25 17:36:17;;;;;;;;;;;10.90;78.00;;;;;;9172565;19;19914;-63
2023/03/25 17:39:24;;;;;;;;;;;10.90;77.90;;;;;;9169824;19;20333;-63
2023/03/25 17:42:29;;;;;;;;;;;10.80;77.90;;;;;;9174162;19;20472;-63
2023/03/25 17:45:35;;;;;;;;;;;10.80;77.90;;;;;;9167627;19;19930;-63
2023/03/25 17:48:38;;;;;;;;;;;10.70;77.90;;;;;;9174100;19;20285;-63
2023/03/25 17:51:47;;;;;;;;;;;10.80;77.90;;;;;;9171452;19;19925;-63
2023/03/25 17:54:50;;;;;;;;;;;10.70;77.90;;;;;;9173644;19;20007;-63
2023/03/25 17:57:56;;;;;;;;;;;10.70;77.90;;;;;;9171959;19;19926;-62
2023/03/25 18:01:00;;;;;;;;;;;10.60;77.90;;;;;;9170814;19;19914;-63
2023/03/25 18:04:06;;;;;;;;;;;10.60;77.90;;;;;;9172487;19;19923;-63
2023/03/25 18:07:12;;;;;;;;;;;10.60;77.90;;;;;;9170706;19;20272;-63
2023/03/25 18:10:19;;;;;;;;;;;10.60;77.90;;;;;;9171817;19;19927;-63
2023/03/25 18:13:24;;;;;;;;;;;10.60;77.90;;;;;;9168424;19;19926;-63
2023/03/25 18:16:30;;;;;;;;;;;10.50;77.90;;;;;;9162477;19;20329;-64
2023/03/25 18:19:34;;;;;;;;;;;10.50;77.90;;;;;;9167475;19;19922;-62